Time;durP1;ratioP1;P1;durP2;ratioP2;P2;SDS_P1;SDS_P2;PMS_P1;PMS_P2;Temp;Humidity;BMP_temperature;BMP_pressure;BME280_temperature;BME280_humidity;BME280_pressure;Samples;Min_cycle;Max_cycle;Signal;HPM_P1;HPM_P2
2023/03/19 00:02:00;;;;;;;21.70;13.68;;;8.70;90.70;;;;;;5054404;28;20662;-87
2023/03/19 00:04:28;;;;;;;18.20;9.05;;;9.00;90.50;;;;;;5016582;28;20634;-90
2023/03/19 00:06:56;;;;;;;12.88;7.97;;;9.00;85.80;;;;;;5055177;28;20205;-86
2023/03/19 00:09:23;;;;;;;17.45;8.50;;;8.70;87.90;;;;;;5032361;28;20194;-87
2023/03/19 00:11:50;;;;;;;15.65;8.45;;;8.40;90.40;;;;;;5050032;28;20206;-87
2023/03/19 00:14:17;;;;;;;13.00;8.88;;;8.20;90.30;;;;;;5034649;28;20209;-86
2023/03/19 00:16:44;;;;;;;17.10;9.77;;;8.10;91.10;;;;;;5036196;28;20213;-86
2023/03/19 00:19:11;;;;;;;17.35;8.07;;;8.50;91.00;;;;;;5050984;28;20198;-88
2023/03/19 00:21:39;;;;;;;12.75;8.15;;;8.40;90.30;;;;;;5051459;28;20217;-87
2023/03/19 00:24:09;;;;;;;16.50;8.45;;;8.30;90.60;;;;;;5054083;28;20202;-87
2023/03/19 00:26:36;;;;;;;16.52;10.60;;;8.20;91.20;;;;;;5054569;28;20620;-87
2023/03/19 00:29:04;;;;;;;17.35;11.80;;;8.20;92.10;;;;;;5026244;28;20205;-86
2023/03/19 00:31:31;;;;;;;18.50;12.13;;;8.60;91.90;;;;;;5054667;28;20198;-86
2023/03/19 00:34:01;;;;;;;18.58;11.70;;;8.80;91.10;;;;;;5027595;28;20194;-88
2023/03/19 00:36:29;;;;;;;15.95;10.07;;;9.00;90.50;;;;;;5054350;28;20687;-86
2023/03/19 00:38:56;;;;;;;18.05;12.65;;;9.10;90.30;;;;;;5054275;28;20650;-87
2023/03/19 00:41:25;;;;;;;17.20;11.40;;;9.00;90.50;;;;;;5048244;28;20726;-86
2023/03/19 00:43:56;;;;;;;15.32;10.27;;;9.20;90.40;;;;;;5034919;28;20206;-87
2023/03/19 00:46:23;;;;;;;17.15;11.90;;;9.20;89.10;;;;;;5018044;28;20198;-86
2023/03/19 00:48:54;;;;;;;14.68;8.60;;;9.20;89.30;;;;;;5035998;28;20206;-86
2023/03/19 00:51:21;;;;;;;16.25;8.32;;;9.20;86.50;;;;;;5050965;28;20194;-87
2023/03/19 00:53:48;;;;;;;24.20;16.65;;;8.80;87.00;;;;;;5049810;28;20194;-87
2023/03/19 00:56:18;;;;;;;25.73;16.27;;;8.60;90.50;;;;;;5054189;28;20224;-88
2023/03/19 00:58:46;;;;;;;26.58;18.50;;;8.80;90.60;;;;;;5035769;28;20287;-87
2023/03/19 01:01:16;;;;;;;19.88;14.35;;;8.80;90.50;;;;;;5035786;28;20198;-87
2023/03/19 01:03:44;;;;;;;28.90;17.60;;;8.80;90.40;;;;;;5043344;28;20197;-87
2023/03/19 01:06:11;;;;;;;22.30;15.48;;;8.70;90.40;;;;;;5054521;28;20202;-86
2023/03/19 01:08:39;;;;;;;26.23;18.20;;;8.60;90.40;;;;;;5048537;28;20213;-87
2023/03/19 01:11:08;;;;;;;30.00;18.38;;;8.60;90.90;;;;;;5031999;28;20575;-88
2023/03/19 01:13:35;;;;;;;22.92;15.98;;;8.50;90.80;;;;;;5052982;28;20296;-86
2023/03/19 01:16:04;;;;;;;22.08;14.27;;;8.60;90.90;;;;;;5052578;28;20226;-88
2023/03/19 01:18:31;;;;;;;27.35;16.00;;;8.60;90.40;;;;;;5048379;28;20208;-86
2023/03/19 01:20:58;;;;;;;23.58;15.15;;;8.50;90.70;;;;;;5049238;28;20209;-86
2023/03/19 01:23:25;;;;;;;21.77;13.23;;;8.30;90.90;;;;;;5035208;28;20279;-87
2023/03/19 01:25:52;;;;;;;16.80;8.50;;;8.10;91.10;;;;;;5052188;28;20206;-86
2023/03/19 01:28:21;;;;;;;13.30;8.60;;;7.80;90.60;;;;;;5021748;28;20268;-87
2023/03/19 01:30:47;;;;;;;18.13;9.15;;;7.60;91.30;;;;;;5053716;28;20197;-86
2023/03/19 01:33:16;;;;;;;23.58;11.93;;;7.40;92.00;;;;;;5055057;28;20647;-86
2023/03/19 01:35:46;;;;;;;21.30;14.40;;;7.30;92.90;;;;;;5056496;28;20567;-86
2023/03/19 01:38:16;;;;;;;24.38;15.55;;;7.30;93.90;;;;;;5055014;28;20213;-87
2023/03/19 01:40:47;;;;;;;19.80;14.23;;;7.50;93.60;;;;;;5049060;28;20213;-87
2023/03/19 01:43:19;;;;;;;19.45;11.23;;;7.70;93.10;;;;;;5050097;28;20218;-86
2023/03/19 01:45:47;;;;;;;16.17;8.98;;;7.80;92.50;;;;;;5052717;28;20259;-86
2023/03/19 01:48:31;;;;;;;11.25;7.78;;;7.70;91.80;;;;;;5051701;28;20210;-86
2023/03/19 01:50:59;;;;;;;13.38;8.55;;;7.40;92.20;;;;;;5027184;28;20205;-90
2023/03/19 01:53:30;;;;;;;21.77;13.38;;;7.20;92.90;;;;;;5035792;28;20198;-86
2023/03/19 01:56:02;;;;;;;19.20;10.13;;;7.40;94.00;;;;;;5053461;28;20210;-86
2023/03/19 01:58:30;;;;;;;12.88;7.68;;;7.50;92.90;;;;;;5050535;28;20224;-87
2023/03/19 02:00:58;;;;;;;12.18;7.65;;;7.30;92.40;;;;;;5051279;28;20583;-86
2023/03/19 02:03:27;;;;;;;12.57;7.18;;;7.10;92.80;;;;;;5020582;28;20210;-87
2023/03/19 02:05:57;;;;;;;12.80;7.25;;;6.90;93.40;;;;;;5030591;28;20299;-86
2023/03/19 02:08:26;;;;;;;16.50;9.82;;;6.80;93.90;;;;;;5047986;28;20203;-86
2023/03/19 02:10:54;;;;;;;17.23;11.38;;;6.70;94.80;;;;;;5047673;28;20194;-85
2023/03/19 02:13:22;;;;;;;18.48;11.45;;;7.00;95.50;;;;;;5030364;28;20210;-85
2023/03/19 02:15:49;;;;;;;19.10;12.45;;;7.10;95.10;;;;;;5047305;28;20233;-86
2023/03/19 02:18:17;;;;;;;16.20;10.55;;;7.30;94.70;;;;;;5048771;28;20198;-85
2023/03/19 02:20:55;;;;;;;16.02;7.57;;;7.40;94.20;;;;;;5034642;28;20563;-86
2023/03/19 02:23:30;;;;;;;11.70;6.85;;;7.30;92.90;;;;;;5032937;28;20686;-86
2023/03/19 02:26:05;;;;;;;13.18;8.07;;;7.00;93.20;;;;;;5044512;28;20199;-87
2023/03/19 02:28:33;;;;;;;16.67;9.68;;;6.90;94.00;;;;;;5050832;28;20197;-86
2023/03/19 02:31:00;;;;;;;15.80;10.77;;;7.10;95.00;;;;;;5050078;28;20194;-86
2023/03/19 02:33:27;;;;;;;15.43;11.13;;;7.20;95.00;;;;;;5050932;28;20259;-87
2023/03/19 02:35:56;;;;;;;20.80;11.20;;;7.40;94.50;;;;;;5050373;28;20221;-87
2023/03/19 02:38:28;;;;;;;21.02;10.30;;;7.50;94.10;;;;;;5017438;28;20225;-89
2023/03/19 02:41:00;;;;;;;15.35;10.05;;;7.60;93.50;;;;;;5045092;28;20209;-86
2023/03/19 02:43:29;;;;;;;14.93;8.73;;;7.60;93.30;;;;;;5049190;28;20209;-86
2023/03/19 02:45:56;;;;;;;16.40;8.82;;;7.50;93.60;;;;;;5047353;28;20216;-86
2023/03/19 02:48:25;;;;;;;14.23;9.52;;;7.60;93.30;;;;;;5050002;28;20198;-86
2023/03/19 02:50:52;;;;;;;13.13;8.55;;;7.60;93.20;;;;;;5033936;28;20198;-86
2023/03/19 02:53:19;;;;;;;13.10;8.88;;;7.50;93.00;;;;;;5047910;28;20210;-86
2023/03/19 02:55:46;;;;;;;17.10;9.48;;;7.40;93.30;;;;;;5048534;28;20217;-86
2023/03/19 02:58:13;;;;;;;15.45;9.13;;;7.40;92.90;;;;;;5032312;28;20206;-86
2023/03/19 03:00:42;;;;;;;16.40;8.25;;;7.30;93.30;;;;;;5051526;28;20206;-86
2023/03/19 03:03:09;;;;;;;12.02;7.78;;;7.30;93.60;;;;;;5032673;28;20196;-86
2023/03/19 03:05:39;;;;;;;13.85;9.25;;;7.30;93.60;;;;;;5028551;28;20221;-86
2023/03/19 03:08:06;;;;;;;12.15;7.80;;;7.30;94.00;;;;;;5046896;28;20233;-89
2023/03/19 03:10:35;;;;;;;12.68;7.65;;;7.40;93.80;;;;;;5047760;28;20213;-86
2023/03/19 03:13:02;;;;;;;11.82;8.02;;;7.40;93.60;;;;;;5052138;28;20624;-88
2023/03/19 03:15:29;;;;;;;10.88;7.53;;;7.40;93.50;;;;;;5049594;28;20585;-86
2023/03/19 03:17:57;;;;;;;9.63;5.63;;;7.40;93.50;;;;;;5048149;28;20691;-86
2023/03/19 03:20:24;;;;;;;9.90;5.50;;;7.20;92.60;;;;;;5052310;28;20212;-86
2023/03/19 03:22:52;;;;;;;8.73;5.90;;;6.90;93.10;;;;;;5056644;28;20236;-86
2023/03/19 03:25:19;;;;;;;9.88;5.82;;;6.70;93.90;;;;;;5039530;28;20194;-86
2023/03/19 03:27:46;;;;;;;9.10;6.50;;;6.60;94.60;;;;;;5051933;28;20550;-86
2023/03/19 03:30:14;;;;;;;9.30;5.10;;;6.60;95.40;;;;;;5054090;28;20202;-86
2023/03/19 03:32:42;;;;;;;10.32;5.18;;;6.50;95.00;;;;;;5055048;28;20785;-86
2023/03/19 03:35:10;;;;;;;6.63;5.22;;;6.40;95.40;;;;;;5037726;28;20202;-86
2023/03/19 03:37:38;;;;;;;10.68;6.90;;;6.50;95.40;;;;;;5051815;28;20209;-86
2023/03/19 03:40:07;;;;;;;10.05;5.82;;;6.80;95.60;;;;;;5054167;28;20234;-85
2023/03/19 03:42:36;;;;;;;13.27;6.25;;;7.00;95.00;;;;;;5051946;28;20210;-88
2023/03/19 03:45:03;;;;;;;8.93;6.30;;;7.10;94.70;;;;;;5052302;28;20248;-88
2023/03/19 03:47:31;;;;;;;10.05;5.50;;;7.10;94.50;;;;;;5031732;28;20228;-87
2023/03/19 03:49:58;;;;;;;7.78;5.13;;;7.30;94.40;;;;;;5045454;28;20828;-86
2023/03/19 03:52:30;;;;;;;11.45;5.18;;;7.40;93.80;;;;;;5049817;28;20661;-86
2023/03/19 03:54:58;;;;;;;8.80;5.57;;;7.30;93.30;;;;;;5051057;28;20596;-86
2023/03/19 03:57:25;;;;;;;8.93;6.07;;;7.40;93.70;;;;;;5030555;28;21026;-86
2023/03/19 03:59:52;;;;;;;7.47;4.73;;;7.30;94.20;;;;;;5047702;28;20194;-88
2023/03/19 04:02:19;;;;;;;6.28;4.60;;;7.30;93.30;;;;;;5060229;28;20202;-86
2023/03/19 04:04:46;;;;;;;7.82;5.95;;;7.20;93.60;;;;;;5036313;28;20637;-87
2023/03/19 04:07:14;;;;;;;9.93;5.82;;;7.10;94.40;;;;;;5047092;28;20206;-87
2023/03/19 04:09:44;;;;;;;8.52;5.10;;;7.30;94.50;;;;;;5053219;28;20692;-87
2023/03/19 04:12:12;;;;;;;9.65;5.60;;;7.30;94.10;;;;;;5054607;28;20228;-87
2023/03/19 04:14:39;;;;;;;12.45;5.18;;;7.40;94.10;;;;;;5054352;28;20209;-90
2023/03/19 04:17:06;;;;;;;10.27;4.95;;;7.40;93.70;;;;;;5054962;28;20252;-87
2023/03/19 04:19:34;;;;;;;8.05;5.20;;;7.20;93.20;;;;;;5050146;28;20219;-88
2023/03/19 04:22:02;;;;;;;10.02;5.88;;;7.10;94.40;;;;;;5054008;28;20713;-88
2023/03/19 04:24:29;;;;;;;7.80;5.25;;;7.30;94.70;;;;;;5051307;28;20229;-87
2023/03/19 04:26:58;;;;;;;7.93;5.00;;;7.30;94.40;;;;;;5043257;28;20199;-89
2023/03/19 04:29:26;;;;;;;6.80;4.90;;;7.40;94.20;;;;;;5031284;28;20197;-88
2023/03/19 04:31:52;;;;;;;7.35;5.35;;;7.30;94.10;;;;;;5019117;28;20565;-87
2023/03/19 04:34:20;;;;;;;7.65;4.55;;;7.40;94.30;;;;;;5054129;28;20206;-87
2023/03/19 04:36:47;;;;;;;9.52;4.53;;;7.30;93.40;;;;;;5052395;28;20218;-88
2023/03/19 04:39:14;;;;;;;11.85;5.25;;;7.10;93.90;;;;;;5045343;28;20281;-88
2023/03/19 04:41:42;;;;;;;10.07;5.07;;;7.10;94.70;;;;;;5047458;28;20206;-88
2023/03/19 04:44:10;;;;;;;8.77;5.35;;;7.20;94.60;;;;;;5040506;28;20209;-88
2023/03/19 04:46:37;;;;;;;9.93;4.45;;;7.40;94.60;;;;;;5051991;28;20209;-89
2023/03/19 04:49:04;;;;;;;7.93;5.10;;;7.40;93.80;;;;;;5018271;28;20198;-90
2023/03/19 04:51:31;;;;;;;6.43;4.85;;;7.50;93.90;;;;;;5053950;28;20198;-87
2023/03/19 04:53:58;;;;;;;8.32;4.78;;;7.50;93.80;;;;;;5053879;28;20249;-90
2023/03/19 04:56:26;;;;;;;8.35;5.35;;;7.40;93.90;;;;;;5032960;28;20228;-88
2023/03/19 04:58:53;;;;;;;6.05;4.85;;;7.40;94.10;;;;;;5034500;28;20210;-88
2023/03/19 05:01:22;;;;;;;6.25;4.63;;;7.50;94.20;;;;;;5058847;28;20201;-87
2023/03/19 05:03:49;;;;;;;6.95;4.43;;;7.50;93.60;;;;;;5055305;28;20197;-88
2023/03/19 05:06:16;;;;;;;9.40;4.72;;;7.40;93.60;;;;;;5053672;28;20206;-87
2023/03/19 05:08:44;;;;;;;8.60;4.85;;;7.40;94.10;;;;;;5052458;28;20206;-87
2023/03/19 05:11:11;;;;;;;7.22;5.13;;;7.40;94.00;;;;;;5053259;28;20206;-88
2023/03/19 05:13:37;;;;;;;7.78;4.90;;;7.40;94.10;;;;;;5053297;28;20206;-87
2023/03/19 05:16:05;;;;;;;10.85;4.95;;;7.40;94.20;;;;;;5051931;28;20221;-89
2023/03/19 05:18:34;;;;;;;8.07;4.85;;;7.50;94.20;;;;;;5033214;28;20275;-86
2023/03/19 05:21:01;;;;;;;7.57;4.72;;;7.50;93.90;;;;;;5053198;28;20232;-89
2023/03/19 05:23:28;;;;;;;5.78;4.90;;;7.50;93.80;;;;;;5053196;28;20226;-88
2023/03/19 05:25:56;;;;;;;6.68;4.90;;;7.50;93.80;;;;;;5028973;28;20206;-88
2023/03/19 05:28:23;;;;;;;7.80;4.97;;;7.50;93.80;;;;;;5045987;28;20312;-89
2023/03/19 05:30:50;;;;;;;9.50;5.40;;;7.60;94.00;;;;;;5049103;28;20209;-88
2023/03/19 05:33:17;;;;;;;9.75;5.07;;;7.70;93.70;;;;;;5054090;28;20202;-87
2023/03/19 05:35:45;;;;;;;10.02;4.88;;;7.80;93.50;;;;;;5033036;28;20206;-87
2023/03/19 05:38:13;;;;;;;8.50;5.20;;;7.90;93.20;;;;;;5050074;28;20252;-87
2023/03/19 05:40:41;;;;;;;11.77;7.05;;;7.90;93.50;;;;;;5051474;28;20252;-88
2023/03/19 05:43:08;;;;;;;18.42;10.35;;;8.00;93.00;;;;;;5050685;28;20197;-89
2023/03/19 05:45:35;;;;;;;20.80;12.43;;;8.00;92.80;;;;;;5052585;28;20206;-88
2023/03/19 05:48:03;;;;;;;13.15;8.05;;;8.00;92.70;;;;;;5047565;28;20205;-87
2023/03/19 05:50:30;;;;;;;10.60;6.03;;;8.00;93.00;;;;;;5052202;28;20206;-87
2023/03/19 05:52:59;;;;;;;8.30;5.65;;;8.10;93.00;;;;;;5038049;28;20206;-89
2023/03/19 05:55:26;;;;;;;7.93;5.05;;;8.10;93.30;;;;;;5049908;28;20202;-88
2023/03/19 05:57:55;;;;;;;9.60;5.13;;;8.20;92.70;;;;;;5035343;28;20233;-88
2023/03/19 06:00:22;;;;;;;7.25;4.55;;;8.20;92.60;;;;;;5051081;28;20197;-88
2023/03/19 06:02:50;;;;;;;8.60;4.95;;;8.20;93.00;;;;;;5030482;28;20267;-88
2023/03/19 06:05:20;;;;;;;7.60;5.25;;;8.30;92.80;;;;;;5045990;28;20706;-88
2023/03/19 06:07:48;;;;;;;8.68;5.68;;;8.40;92.80;;;;;;5051604;28;20205;-89
2023/03/19 06:10:17;;;;;;;9.68;5.63;;;8.50;92.80;;;;;;5033781;28;20210;-88
2023/03/19 06:12:46;;;;;;;8.18;5.65;;;8.60;92.70;;;;;;5029683;28;20205;-88
2023/03/19 06:15:14;;;;;;;7.93;5.55;;;8.70;92.20;;;;;;5050897;28;20208;-88
2023/03/19 06:17:43;;;;;;;10.05;5.60;;;8.80;92.10;;;;;;5027238;28;20218;-88
2023/03/19 06:20:14;;;;;;;9.27;6.40;;;8.90;91.90;;;;;;5028561;28;20225;-87
2023/03/19 06:22:42;;;;;;;8.60;6.20;;;8.90;91.60;;;;;;5031002;28;20333;-88
2023/03/19 06:25:10;;;;;;;10.70;6.50;;;9.00;91.20;;;;;;5018492;28;20210;-88
2023/03/19 06:27:39;;;;;;;10.18;6.70;;;9.10;91.00;;;;;;5049143;28;20574;-87
2023/03/19 06:30:07;;;;;;;13.88;7.07;;;9.20;90.80;;;;;;5033580;28;20240;-88
2023/03/19 06:32:35;;;;;;;10.13;6.10;;;9.30;91.00;;;;;;5034535;28;20214;-86
2023/03/19 06:35:02;;;;;;;9.98;6.68;;;9.30;90.50;;;;;;5051770;28;20201;-88
2023/03/19 06:37:31;;;;;;;9.70;6.55;;;9.30;90.50;;;;;;5051005;28;20225;-88
2023/03/19 06:39:58;;;;;;;10.52;6.90;;;9.30;90.70;;;;;;5016181;28;20203;-88
2023/03/19 06:42:25;;;;;;;9.48;6.30;;;9.30;91.00;;;;;;5033000;28;20565;-87
2023/03/19 06:44:54;;;;;;;8.32;6.22;;;9.40;90.50;;;;;;5052601;28;20212;-86
2023/03/19 06:47:21;;;;;;;10.63;6.75;;;9.50;90.60;;;;;;5049921;28;20202;-87
2023/03/19 06:49:48;;;;;;;9.82;6.80;;;9.60;90.60;;;;;;5045556;28;20730;-87
2023/03/19 06:52:15;;;;;;;9.23;6.57;;;9.50;90.60;;;;;;5052726;28;20202;-89
2023/03/19 06:54:42;;;;;;;9.88;6.30;;;9.60;90.60;;;;;;5031428;28;20233;-90
2023/03/19 06:57:09;;;;;;;8.00;5.97;;;9.70;90.40;;;;;;5062246;28;20217;-89
2023/03/19 06:59:36;;;;;;;10.68;6.45;;;9.60;90.60;;;;;;5053702;28;20669;-89
2023/03/19 07:02:04;;;;;;;8.48;6.40;;;9.70;90.30;;;;;;5039013;28;20553;-88
2023/03/19 07:04:55;;;;;;;11.07;6.30;;;9.60;90.90;;;;;;5054326;28;20198;-88
2023/03/19 07:07:22;;;;;;;10.82;6.40;;;9.70;90.60;;;;;;5035626;28;20197;-91
2023/03/19 07:09:50;;;;;;;9.65;6.30;;;9.70;90.40;;;;;;5020272;28;20190;-88
2023/03/19 07:12:17;;;;;;;11.45;6.80;;;9.70;90.60;;;;;;5044632;28;20206;-88
2023/03/19 07:14:45;;;;;;;9.57;6.22;;;9.70;90.60;;;;;;5051554;28;20220;-90
2023/03/19 07:17:13;;;;;;;7.50;6.25;;;9.70;90.60;;;;;;5035707;28;20576;-89
2023/03/19 07:19:41;;;;;;;9.05;6.38;;;9.70;90.60;;;;;;5035806;28;20233;-90
2023/03/19 07:28:07;;;;;;;10.00;6.32;;;9.80;91.50;;;;;;5073554;28;20226;-88
2023/03/19 07:30:34;;;;;;;8.68;6.53;;;9.90;90.70;;;;;;5073626;28;20204;-87
2023/03/19 07:33:04;;;;;;;9.73;5.78;;;10.00;90.30;;;;;;5056162;28;20205;-88
2023/03/19 07:36:17;;;;;;;8.73;5.85;;;10.10;90.30;;;;;;5011332;28;20195;-89
2023/03/19 07:42:08;;;;;;;7.47;5.22;;;10.30;88.90;;;;;;5025126;28;20613;-88
2023/03/19 07:44:36;;;;;;;11.50;6.00;;;10.30;88.20;;;;;;5031960;28;20208;-88
2023/03/19 07:47:03;;;;;;;8.38;5.63;;;10.40;87.60;;;;;;5068099;28;20213;-88
2023/03/19 07:52:14;;;;;;;7.47;4.93;;;10.40;87.40;;;;;;5030580;28;20191;-89
2023/03/19 07:54:42;;;;;;;8.38;5.13;;;10.40;89.40;;;;;;5014392;28;20214;-89
2023/03/19 07:57:10;;;;;;;6.18;4.63;;;10.40;89.30;;;;;;5026172;28;20238;-89
2023/03/19 07:59:37;;;;;;;9.30;5.03;;;10.60;88.20;;;;;;5026995;28;20195;-89
2023/03/19 08:02:07;;;;;;;10.35;4.80;;;10.60;87.40;;;;;;5040047;28;20212;-88
2023/03/19 08:07:25;;;;;;;5.60;4.72;;;10.60;88.50;;;;;;5068222;28;20679;-89
2023/03/19 08:09:52;;;;;;;6.78;4.82;;;10.70;88.30;;;;;;5074132;28;20660;-88
2023/03/19 08:12:20;;;;;;;6.18;4.57;;;10.70;88.70;;;;;;5076223;28;20650;-90
2023/03/19 08:14:47;;;;;;;8.25;4.63;;;10.80;88.70;;;;;;5076060;28;20207;-90
2023/03/19 08:17:14;;;;;;;8.73;4.00;;;10.80;88.90;;;;;;5075703;28;20229;-89
2023/03/19 08:19:49;;;;;;;8.02;4.20;;;10.80;89.00;;;;;;5074442;28;20205;-88
2023/03/19 08:22:17;;;;;;;6.93;4.18;;;10.90;88.10;;;;;;5033945;28;20259;-89
2023/03/19 08:24:44;;;;;;;7.75;4.40;;;10.90;89.40;;;;;;5067058;28;20217;-89
2023/03/19 08:27:11;;;;;;;7.50;4.25;;;10.90;89.40;;;;;;5058439;28;20277;-92
2023/03/19 08:29:38;;;;;;;4.68;3.90;;;10.90;88.70;;;;;;5068702;28;20217;-91
2023/03/19 08:32:05;;;;;;;6.45;4.13;;;10.90;88.30;;;;;;5075718;28;20538;-91
2023/03/19 08:34:33;;;;;;;7.43;4.25;;;10.90;89.80;;;;;;5048001;28;20729;-92
2023/03/19 08:37:02;;;;;;;6.70;4.05;;;11.00;88.90;;;;;;5057442;28;20218;-88
2023/03/19 08:43:32;;;;;;;5.18;4.10;;;10.90;90.20;;;;;;5056215;28;20269;-87
2023/03/19 08:45:59;;;;;;;5.88;4.57;;;10.90;90.50;;;;;;5063688;28;20192;-89
2023/03/19 08:48:27;;;;;;;5.20;4.00;;;10.90;90.40;;;;;;5055246;28;20251;-85
2023/03/19 08:50:54;;;;;;;6.07;4.45;;;10.90;90.50;;;;;;5043899;28;20252;-86
2023/03/19 08:53:23;;;;;;;8.55;4.10;;;10.90;90.50;;;;;;5062833;28;20202;-85
2023/03/19 08:55:54;;;;;;;5.50;4.20;;;10.90;90.50;;;;;;5071065;28;20246;-85
2023/03/19 08:58:20;;;;;;;4.80;3.90;;;11.00;90.20;;;;;;5068643;28;20228;-85
2023/03/19 09:00:48;;;;;;;8.85;3.90;;;10.90;90.50;;;;;;5058242;28;20193;-86
2023/03/19 09:03:16;;;;;;;7.53;3.85;;;10.90;90.50;;;;;;5062985;28;20205;-85
2023/03/19 09:05:43;;;;;;;5.47;3.90;;;10.90;90.50;;;;;;5066998;28;20562;-85
2023/03/19 09:08:10;;;;;;;4.85;3.45;;;11.10;90.10;;;;;;5058880;28;20205;-87
2023/03/19 09:10:39;;;;;;;6.18;3.47;;;11.20;88.70;;;;;;5064450;28;20213;-85
2023/03/19 09:13:06;;;;;;;5.72;3.60;;;11.20;89.80;;;;;;5068150;28;20201;-86
2023/03/19 09:15:33;;;;;;;4.50;3.35;;;11.30;89.40;;;;;;5060283;28;20206;-85
2023/03/19 09:18:00;;;;;;;5.05;3.58;;;11.30;88.70;;;;;;5061464;28;20236;-85
2023/03/19 09:20:27;;;;;;;5.18;3.63;;;11.40;88.20;;;;;;5060666;28;20193;-89
2023/03/19 09:22:54;;;;;;;5.70;3.70;;;11.40;87.90;;;;;;5028457;28;20596;-84
2023/03/19 09:25:21;;;;;;;5.65;3.85;;;11.50;86.50;;;;;;5042485;28;20202;-85
2023/03/19 09:27:49;;;;;;;5.10;3.42;;;11.60;86.90;;;;;;5070450;28;20205;-85
2023/03/19 09:30:16;;;;;;;6.03;3.63;;;11.80;85.40;;;;;;5065290;28;20197;-84
2023/03/19 09:32:44;;;;;;;5.30;3.38;;;12.10;82.10;;;;;;5044090;28;20197;-86
2023/03/19 09:35:11;;;;;;;5.95;3.50;;;12.40;81.80;;;;;;5021922;28;20209;-88
2023/03/19 09:37:38;;;;;;;5.20;3.80;;;12.60;81.00;;;;;;5053582;28;20237;-87
2023/03/19 09:40:07;;;;;;;6.72;3.53;;;12.90;77.20;;;;;;5063425;28;20202;-87
2023/03/19 09:42:49;;;;;;;5.93;3.83;;;13.20;73.80;;;;;;5066684;28;20205;-88
2023/03/19 09:45:19;;;;;;;3.80;3.30;;;13.10;73.50;;;;;;5069012;28;20197;-86
2023/03/19 09:47:49;;;;;;;6.63;3.58;;;13.00;73.60;;;;;;5066990;28;20198;-89
2023/03/19 09:50:19;;;;;;;6.05;3.45;;;12.80;75.70;;;;;;5062991;28;20283;-88
2023/03/19 09:52:47;;;;;;;4.43;3.33;;;12.80;75.70;;;;;;5060935;28;20572;-91
2023/03/19 09:55:31;;;;;;;5.65;3.50;;;12.80;75.70;;;;;;5062309;28;20566;-87
2023/03/19 09:58:01;;;;;;;6.47;3.55;;;12.70;75.60;;;;;;5070107;28;20228;-88
2023/03/19 10:00:33;;;;;;;5.18;3.55;;;12.80;75.70;;;;;;5044279;28;20194;-87
2023/03/19 10:03:06;;;;;;;4.40;3.28;;;12.70;75.60;;;;;;5067726;28;20205;-88
2023/03/19 10:06:15;;;;;;;4.43;3.70;;;12.80;77.10;;;;;;5058768;28;20608;-87
2023/03/19 10:09:01;;;;;;;4.78;3.30;;;12.80;75.80;;;;;;5050316;28;20521;-87
2023/03/19 10:11:51;;;;;;;3.90;2.97;;;12.80;76.40;;;;;;5057292;28;20196;-88
2023/03/19 10:14:45;;;;;;;4.80;3.20;;;12.90;74.70;;;;;;5068736;28;20203;-88
2023/03/19 10:17:19;;;;;;;4.68;3.35;;;13.00;71.50;;;;;;5060614;28;20221;-87
2023/03/19 10:19:51;;;;;;;5.05;3.20;;;13.10;70.80;;;;;;5061648;28;20196;-87
2023/03/19 10:22:21;;;;;;;4.55;3.90;;;13.10;72.90;;;;;;5044249;28;21075;-88
2023/03/19 10:24:50;;;;;;;9.57;7.63;;;13.20;71.40;;;;;;5064698;28;20209;-88
2023/03/19 10:27:19;;;;;;;5.30;3.67;;;13.40;69.60;;;;;;5057412;28;20205;-88
2023/03/19 10:29:46;;;;;;;3.67;2.95;;;13.60;68.70;;;;;;5058726;28;20194;-87
2023/03/19 10:32:18;;;;;;;5.30;3.10;;;13.70;64.80;;;;;;5061292;28;20205;-87
2023/03/19 10:34:47;;;;;;;7.47;5.90;;;13.80;67.30;;;;;;5063768;28;20205;-87
2023/03/19 10:37:18;;;;;;;6.38;4.22;;;13.90;65.20;;;;;;5065061;28;20193;-88
2023/03/19 10:39:46;;;;;;;15.98;11.48;;;13.90;60.70;;;;;;5060403;28;20235;-87
2023/03/19 10:42:26;;;;;;;4.85;2.60;;;14.00;59.30;;;;;;5058726;28;20197;-88
2023/03/19 10:45:00;;;;;;;4.95;3.45;;;14.00;57.50;;;;;;5066431;28;20208;-87
2023/03/19 10:47:28;;;;;;;4.32;3.60;;;14.00;57.70;;;;;;5064465;28;20201;-87
2023/03/19 10:49:57;;;;;;;5.85;4.65;;;13.90;56.00;;;;;;5058348;28;20232;-86
2023/03/19 10:52:28;;;;;;;5.15;3.63;;;13.80;53.70;;;;;;5064092;28;20222;-87
2023/03/19 10:54:57;;;;;;;5.82;3.00;;;13.80;54.20;;;;;;5054717;28;20190;-86
2023/03/19 10:57:27;;;;;;;6.90;3.53;;;13.60;57.60;;;;;;5063058;28;20213;-87
2023/03/19 10:59:54;;;;;;;5.40;3.45;;;13.60;57.00;;;;;;5063238;28;20215;-86
2023/03/19 11:02:26;;;;;;;4.25;3.22;;;13.70;57.00;;;;;;5062033;28;20202;-87
2023/03/19 11:05:09;;;;;;;5.30;3.47;;;13.80;55.80;;;;;;5068652;28;20185;-88
2023/03/19 11:07:37;;;;;;;4.97;3.00;;;13.80;54.00;;;;;;5058716;28;20192;-87
2023/03/19 11:10:05;;;;;;;10.18;7.75;;;14.00;54.70;;;;;;5056867;28;20287;-86
2023/03/19 11:12:36;;;;;;;5.10;3.10;;;14.10;52.20;;;;;;5054534;28;20579;-88
2023/03/19 11:15:06;;;;;;;4.18;2.95;;;14.10;50.60;;;;;;5054624;28;20206;-88
2023/03/19 11:17:38;;;;;;;4.97;3.05;;;14.10;50.50;;;;;;5047579;28;20652;-91
2023/03/19 11:20:22;;;;;;;7.50;2.97;;;13.80;55.20;;;;;;5054342;28;20197;-88
2023/03/19 11:22:52;;;;;;;3.50;3.03;;;13.90;55.80;;;;;;5069605;22;20702;-88
2023/03/19 11:25:25;;;;;;;4.93;2.80;;;13.60;52.80;;;;;;5070398;28;20235;-90
2023/03/19 11:27:58;;;;;;;4.68;2.35;;;13.40;55.70;;;;;;5070143;28;20645;-89
2023/03/19 11:30:28;;;;;;;11.02;7.75;;;13.20;55.70;;;;;;5068453;28;20672;-89
2023/03/19 11:33:13;;;;;;;3.95;3.33;;;13.20;56.10;;;;;;5071015;28;20621;-86
2023/03/19 11:35:49;;;;;;;2.88;2.40;;;13.50;52.70;;;;;;5068085;28;20587;-86
2023/03/19 11:38:23;;;;;;;7.45;4.82;;;13.40;53.40;;;;;;5070734;28;20220;-86
2023/03/19 11:41:00;;;;;;;5.05;4.05;;;13.40;53.60;;;;;;5066020;28;20672;-86
2023/03/19 11:43:55;;;;;;;10.55;6.85;;;13.60;53.40;;;;;;5070705;28;20553;-87
2023/03/19 11:46:34;;;;;;;4.22;2.83;;;13.70;53.10;;;;;;5057607;28;20251;-86
2023/03/19 11:49:32;;;;;;;3.78;2.63;;;13.80;50.30;;;;;;5072045;28;20201;-86
2023/03/19 11:52:08;;;;;;;7.03;2.75;;;13.90;52.10;;;;;;5070183;28;20208;-87
2023/03/19 11:54:44;;;;;;;3.83;3.05;;;14.00;52.50;;;;;;5074088;28;20193;-90
2023/03/19 11:57:17;;;;;;;5.30;3.38;;;14.10;50.50;;;;;;5071143;28;20204;-86
2023/03/19 11:59:55;;;;;;;4.03;3.05;;;14.10;50.50;;;;;;5069631;28;20225;-90
2023/03/19 12:03:07;;;;;;;3.70;2.58;;;14.00;50.50;;;;;;5051476;28;20185;-87
2023/03/19 12:05:43;;;;;;;5.15;3.05;;;14.00;50.30;;;;;;4978676;28;20207;-86
2023/03/19 12:08:24;;;;;;;3.88;2.78;;;14.20;48.40;;;;;;5067576;28;20196;-87
2023/03/19 12:10:59;;;;;;;4.47;2.63;;;14.50;45.40;;;;;;5074717;28;20498;-87
2023/03/19 12:13:37;;;;;;;5.32;2.80;;;14.50;42.50;;;;;;5068962;28;20377;-87
2023/03/19 12:16:15;;;;;;;3.75;2.47;;;14.50;42.40;;;;;;5073095;28;20197;-90
2023/03/19 12:18:55;;;;;;;5.32;2.80;;;14.40;41.40;;;;;;5067803;28;20979;-87
2023/03/19 12:21:30;;;;;;;4.20;2.85;;;14.50;43.70;;;;;;5040687;28;20205;-86
2023/03/19 12:24:04;;;;;;;4.68;2.50;;;14.50;42.50;;;;;;5068920;28;20220;-89
2023/03/19 12:26:42;;;;;;;4.43;2.35;;;14.50;40.20;;;;;;5058376;28;20201;-87
2023/03/19 12:29:18;;;;;;;5.65;4.35;;;14.60;40.60;;;;;;5063502;28;20205;-86
2023/03/19 12:32:01;;;;;;;4.50;2.85;;;14.80;40.20;;;;;;5068118;28;20209;-86
2023/03/19 12:34:34;;;;;;;2.95;2.65;;;15.20;39.00;;;;;;5062171;28;20579;-87
2023/03/19 12:37:12;;;;;;;2.83;2.47;;;15.10;34.70;;;;;;5064506;28;20254;-86
2023/03/19 12:39:45;;;;;;;3.28;2.50;;;15.20;34.60;;;;;;5046264;28;20300;-86
2023/03/19 12:42:19;;;;;;;4.10;3.33;;;15.20;37.00;;;;;;5058406;28;20202;-87
2023/03/19 12:44:49;;;;;;;3.22;2.50;;;15.30;35.40;;;;;;5058755;28;20292;-86
2023/03/19 12:47:22;;;;;;;3.60;2.97;;;15.30;33.30;;;;;;5048391;28;20674;-87
2023/03/19 12:49:53;;;;;;;4.20;2.45;;;15.30;32.60;;;;;;5063571;28;20668;-86
2023/03/19 12:52:25;;;;;;;3.83;2.90;;;15.30;33.90;;;;;;5060720;28;20197;-87
2023/03/19 12:54:58;;;;;;;4.10;2.88;;;15.20;33.20;;;;;;5063312;28;20658;-89
2023/03/19 12:57:34;;;;;;;3.53;2.97;;;15.30;32.80;;;;;;5067985;28;20216;-86
2023/03/19 13:00:06;;;;;;;3.35;2.47;;;15.50;31.20;;;;;;5050989;28;20228;-88
2023/03/19 13:02:38;;;;;;;4.53;2.72;;;15.30;31.60;;;;;;5062024;28;20661;-86
2023/03/19 13:05:09;;;;;;;4.60;2.47;;;15.00;32.70;;;;;;5047853;28;20209;-86
2023/03/19 13:07:45;;;;;;;3.85;2.88;;;14.90;31.90;;;;;;5059201;28;20198;-86
2023/03/19 13:10:18;;;;;;;6.75;3.83;;;15.00;32.10;;;;;;5056718;28;20201;-86
2023/03/19 13:12:46;;;;;;;2.97;2.67;;;15.10;33.00;;;;;;5066380;28;20244;-86
2023/03/19 13:15:16;;;;;;;2.60;2.40;;;15.00;31.70;;;;;;5045782;28;20213;-86
2023/03/19 13:17:54;;;;;;;3.47;2.50;;;14.80;32.00;;;;;;5064561;28;20201;-87
2023/03/19 13:20:31;;;;;;;3.70;2.58;;;14.70;31.20;;;;;;5062397;28;20222;-87
2023/03/19 13:23:04;;;;;;;6.53;3.13;;;14.60;32.20;;;;;;5067267;28;20761;-86